sensor_id;sensor_type;location;lat;lon;timestamp;noise_LAeq;noise_LA_min;noise_LA_max;noise_LA01;noise_LA95
72160;Laerm;60045;51.792;10.938;2023-03-03T00:01:43;27.44;26.27;28.69;;
72160;Laerm;60045;51.792;10.938;2023-03-03T00:04:09;27.46;26.32;28.64;;
72160;Laerm;60045;51.792;10.938;2023-03-03T00:06:36;27.46;26.16;29.86;;
72160;Laerm;60045;51.792;10.938;2023-03-03T00:09:02;27.48;26.33;28.61;;
72160;Laerm;60045;51.792;10.938;2023-03-03T00:11:30;27.45;26.31;28.63;;
72160;Laerm;60045;51.792;10.938;2023-03-03T00:13:56;27.45;26.15;28.86;;
72160;Laerm;60045;51.792;10.938;2023-03-03T00:16:23;27.75;26.21;44.14;;
72160;Laerm;60045;51.792;10.938;2023-03-03T00:18:50;28.24;26.02;32.43;;
72160;Laerm;60045;51.792;10.938;2023-03-03T00:21:27;27.65;26.20;29.65;;
72160;Laerm;60045;51.792;10.938;2023-03-03T00:23:54;52.49;26.85;70.08;;
72160;Laerm;60045;51.792;10.938;2023-03-03T00:26:25;28.43;26.86;36.71;;
72160;Laerm;60045;51.792;10.938;2023-03-03T00:28:55;28.40;27.05;38.05;;
72160;Laerm;60045;51.792;10.938;2023-03-03T00:31:22;28.52;26.87;31.17;;
72160;Laerm;60045;51.792;10.938;2023-03-03T00:33:52;53.52;27.20;71.81;;
72160;Laerm;60045;51.792;10.938;2023-03-03T00:36:28;28.46;27.05;34.56;;
72160;Laerm;60045;51.792;10.938;2023-03-03T00:38:58;28.40;26.96;29.99;;
72160;Laerm;60045;51.792;10.938;2023-03-03T00:41:25;53.85;27.07;72.67;;
72160;Laerm;60045;51.792;10.938;2023-03-03T00:43:52;28.82;26.98;42.61;;
72160;Laerm;60045;51.792;10.938;2023-03-03T00:46:20;28.22;26.52;30.10;;
72160;Laerm;60045;51.792;10.938;2023-03-03T00:48:47;36.49;26.32;54.75;;
72160;Laerm;60045;51.792;10.938;2023-03-03T00:53:59;27.64;26.15;29.93;;
72160;Laerm;60045;51.792;10.938;2023-03-03T00:56:26;32.25;26.40;45.04;;
72160;Laerm;60045;51.792;10.938;2023-03-03T00:58:52;28.65;26.40;35.28;;
72160;Laerm;60045;51.792;10.938;2023-03-03T01:01:20;49.52;26.51;68.06;;
72160;Laerm;60045;51.792;10.938;2023-03-03T01:03:49;27.66;26.41;29.71;;
72160;Laerm;60045;51.792;10.938;2023-03-03T01:06:15;27.59;26.43;29.00;;
72160;Laerm;60045;51.792;10.938;2023-03-03T01:08:42;27.65;26.38;29.47;;
72160;Laerm;60045;51.792;10.938;2023-03-03T01:11:09;27.64;26.33;30.30;;
72160;Laerm;60045;51.792;10.938;2023-03-03T01:13:38;27.63;26.25;28.93;;
72160;Laerm;60045;51.792;10.938;2023-03-03T01:16:05;27.56;26.35;30.69;;
72160;Laerm;60045;51.792;10.938;2023-03-03T01:18:33;27.57;26.05;30.93;;
72160;Laerm;60045;51.792;10.938;2023-03-03T01:21:00;27.59;26.39;30.36;;
72160;Laerm;60045;51.792;10.938;2023-03-03T01:23:26;27.60;26.39;29.39;;
72160;Laerm;60045;51.792;10.938;2023-03-03T01:25:53;27.65;26.20;34.50;;
72160;Laerm;60045;51.792;10.938;2023-03-03T01:28:19;27.69;26.23;33.23;;
72160;Laerm;60045;51.792;10.938;2023-03-03T01:30:45;27.55;26.41;28.96;;
72160;Laerm;60045;51.792;10.938;2023-03-03T01:33:12;52.26;26.23;71.07;;
72160;Laerm;60045;51.792;10.938;2023-03-03T01:35:43;27.78;26.36;30.90;;
72160;Laerm;60045;51.792;10.938;2023-03-03T01:38:09;52.69;26.31;73.09;;
72160;Laerm;60045;51.792;10.938;2023-03-03T01:40:36;27.68;26.08;29.93;;
72160;Laerm;60045;51.792;10.938;2023-03-03T01:43:02;27.57;26.40;29.05;;
72160;Laerm;60045;51.792;10.938;2023-03-03T01:45:29;27.52;26.28;28.65;;
72160;Laerm;60045;51.792;10.938;2023-03-03T01:47:57;27.49;26.33;29.53;;
72160;Laerm;60045;51.792;10.938;2023-03-03T01:50:38;27.56;26.06;28.76;;
72160;Laerm;60045;51.792;10.938;2023-03-03T01:53:10;27.53;26.25;28.69;;
72160;Laerm;60045;51.792;10.938;2023-03-03T01:55:38;54.43;26.43;73.33;;
72160;Laerm;60045;51.792;10.938;2023-03-03T01:58:06;29.01;27.21;36.20;;
72160;Laerm;60045;51.792;10.938;2023-03-03T02:00:34;29.14;26.97;35.33;;
72160;Laerm;60045;51.792;10.938;2023-03-03T02:03:01;28.65;27.11;34.54;;
72160;Laerm;60045;51.792;10.938;2023-03-03T02:05:27;29.05;27.26;40.07;;
72160;Laerm;60045;51.792;10.938;2023-03-03T02:07:54;29.04;26.99;34.05;;
72160;Laerm;60045;51.792;10.938;2023-03-03T02:10:22;61.01;27.12;77.64;;
72160;Laerm;60045;51.792;10.938;2023-03-03T02:12:49;29.75;27.20;38.40;;
72160;Laerm;60045;51.792;10.938;2023-03-03T02:15:17;30.94;27.16;58.47;;
72160;Laerm;60045;51.792;10.938;2023-03-03T02:17:43;28.37;26.11;33.16;;
72160;Laerm;60045;51.792;10.938;2023-03-03T02:20:12;27.57;26.36;28.80;;
72160;Laerm;60045;51.792;10.938;2023-03-03T02:22:43;27.56;26.42;28.77;;
72160;Laerm;60045;51.792;10.938;2023-03-03T02:25:13;27.88;26.37;33.63;;
72160;Laerm;60045;51.792;10.938;2023-03-03T02:27:44;54.29;26.48;73.94;;
72160;Laerm;60045;51.792;10.938;2023-03-03T02:30:13;27.76;26.42;31.03;;
72160;Laerm;60045;51.792;10.938;2023-03-03T02:32:40;27.65;26.45;34.21;;
72160;Laerm;60045;51.792;10.938;2023-03-03T02:37:47;27.65;26.42;29.60;;
72160;Laerm;60045;51.792;10.938;2023-03-03T02:40:14;27.64;26.51;35.92;;
72160;Laerm;60045;51.792;10.938;2023-03-03T02:42:41;28.47;26.34;37.21;;
72160;Laerm;60045;51.792;10.938;2023-03-03T02:45:10;44.50;26.66;63.30;;
72160;Laerm;60045;51.792;10.938;2023-03-03T02:47:36;55.03;27.21;72.56;;
72160;Laerm;60045;51.792;10.938;2023-03-03T02:50:02;32.17;26.82;46.20;;
72160;Laerm;60045;51.792;10.938;2023-03-03T02:52:29;62.43;27.15;78.93;;
72160;Laerm;60045;51.792;10.938;2023-03-03T02:54:55;43.23;26.78;53.24;;
72160;Laerm;60045;51.792;10.938;2023-03-03T02:57:21;30.40;26.47;39.67;;
72160;Laerm;60045;51.792;10.938;2023-03-03T02:59:47;28.09;26.50;37.26;;
72160;Laerm;60045;51.792;10.938;2023-03-03T03:02:15;27.89;26.37;32.56;;
72160;Laerm;60045;51.792;10.938;2023-03-03T03:04:43;27.99;26.63;32.08;;
72160;Laerm;60045;51.792;10.938;2023-03-03T03:07:09;27.67;26.50;29.08;;
72160;Laerm;60045;51.792;10.938;2023-03-03T03:09:35;27.58;26.22;28.65;;
72160;Laerm;60045;51.792;10.938;2023-03-03T03:12:02;28.01;26.50;31.31;;
72160;Laerm;60045;51.792;10.938;2023-03-03T03:14:29;27.59;26.30;28.90;;
72160;Laerm;60045;51.792;10.938;2023-03-03T03:16:55;27.75;26.45;33.93;;
72160;Laerm;60045;51.792;10.938;2023-03-03T03:19:23;27.68;26.39;37.39;;
72160;Laerm;60045;51.792;10.938;2023-03-03T03:21:49;27.76;26.42;29.04;;
72160;Laerm;60045;51.792;10.938;2023-03-03T03:24:15;32.60;26.50;55.44;;
72160;Laerm;60045;51.792;10.938;2023-03-03T03:26:42;30.89;26.93;44.47;;
72160;Laerm;60045;51.792;10.938;2023-03-03T03:29:08;54.11;27.51;73.43;;
72160;Laerm;60045;51.792;10.938;2023-03-03T03:31:35;52.81;27.88;68.90;;
72160;Laerm;60045;51.792;10.938;2023-03-03T03:34:02;57.84;27.69;70.97;;
72160;Laerm;60045;51.792;10.938;2023-03-03T03:36:29;30.70;27.25;41.88;;
72160;Laerm;60045;51.792;10.938;2023-03-03T03:38:55;30.26;27.25;53.96;;
72160;Laerm;60045;51.792;10.938;2023-03-03T03:41:22;60.34;31.39;77.89;;
72160;Laerm;60045;51.792;10.938;2023-03-03T03:43:48;57.83;27.57;74.85;;
72160;Laerm;60045;51.792;10.938;2023-03-03T03:46:14;65.62;30.17;82.67;;
72160;Laerm;60045;51.792;10.938;2023-03-03T03:48:41;28.79;26.72;31.95;;
72160;Laerm;60045;51.792;10.938;2023-03-03T03:51:07;27.90;26.61;29.49;;
72160;Laerm;60045;51.792;10.938;2023-03-03T03:53:36;27.91;26.67;29.63;;
72160;Laerm;60045;51.792;10.938;2023-03-03T03:56:02;58.14;26.95;76.45;;
72160;Laerm;60045;51.792;10.938;2023-03-03T03:58:29;59.30;27.22;80.37;;
72160;Laerm;60045;51.792;10.938;2023-03-03T04:01:00;56.78;27.65;71.50;;
72160;Laerm;60045;51.792;10.938;2023-03-03T04:03:26;55.01;27.16;72.16;;
72160;Laerm;60045;51.792;10.938;2023-03-03T04:05:52;53.13;27.88;68.21;;
72160;Laerm;60045;51.792;10.938;2023-03-03T04:08:19;56.12;27.05;75.07;;
72160;Laerm;60045;51.792;10.938;2023-03-03T04:10:46;56.77;27.75;74.76;;
72160;Laerm;60045;51.792;10.938;2023-03-03T04:13:13;53.90;26.98;70.98;;
72160;Laerm;60045;51.792;10.938;2023-03-03T04:15:40;62.55;27.41;79.22;;
72160;Laerm;60045;51.792;10.938;2023-03-03T04:18:06;55.78;28.89;71.90;;
72160;Laerm;60045;51.792;10.938;2023-03-03T04:20:32;57.34;29.86;70.24;;
72160;Laerm;60045;51.792;10.938;2023-03-03T04:22:59;65.07;31.18;80.32;;
72160;Laerm;60045;51.792;10.938;2023-03-03T04:25:25;64.04;29.83;79.35;;
72160;Laerm;60045;51.792;10.938;2023-03-03T04:27:53;60.59;30.77;73.30;;
72160;Laerm;60045;51.792;10.938;2023-03-03T04:30:19;66.31;29.16;86.52;;
72160;Laerm;60045;51.792;10.938;2023-03-03T04:32:45;56.46;27.62;76.37;;
72160;Laerm;60045;51.792;10.938;2023-03-03T04:35:13;57.44;27.91;74.12;;
72160;Laerm;60045;51.792;10.938;2023-03-03T04:37:39;60.01;31.69;71.43;;
72160;Laerm;60045;51.792;10.938;2023-03-03T04:40:06;60.52;29.68;74.85;;
72160;Laerm;60045;51.792;10.938;2023-03-03T04:42:33;60.43;30.31;74.56;;
72160;Laerm;60045;51.792;10.938;2023-03-03T04:45:01;57.90;29.77;75.52;;
72160;Laerm;60045;51.792;10.938;2023-03-03T04:47:27;58.07;29.28;72.57;;
72160;Laerm;60045;51.792;10.938;2023-03-03T04:49:54;51.62;28.18;70.07;;
72160;Laerm;60045;51.792;10.938;2023-03-03T04:52:20;63.15;32.21;79.33;;
72160;Laerm;60045;51.792;10.938;2023-03-03T04:54:46;57.88;30.30;72.86;;
72160;Laerm;60045;51.792;10.938;2023-03-03T04:57:12;62.67;30.61;81.09;;
72160;Laerm;60045;51.792;10.938;2023-03-03T04:59:39;60.25;31.54;75.25;;
72160;Laerm;60045;51.792;10.938;2023-03-03T05:02:06;60.18;30.20;76.07;;
72160;Laerm;60045;51.792;10.938;2023-03-03T05:04:33;57.27;27.23;71.88;;
72160;Laerm;60045;51.792;10.938;2023-03-03T05:06:59;68.30;30.35;88.01;;
72160;Laerm;60045;51.792;10.938;2023-03-03T05:09:25;59.86;33.65;74.80;;
72160;Laerm;60045;51.792;10.938;2023-03-03T05:11:52;64.81;32.99;80.10;;
72160;Laerm;60045;51.792;10.938;2023-03-03T05:14:18;55.85;29.88;72.00;;
72160;Laerm;60045;51.792;10.938;2023-03-03T05:16:44;60.88;27.90;73.65;;
72160;Laerm;60045;51.792;10.938;2023-03-03T05:19:12;55.76;27.47;72.86;;
72160;Laerm;60045;51.792;10.938;2023-03-03T05:21:38;58.91;30.96;72.58;;
72160;Laerm;60045;51.792;10.938;2023-03-03T05:24:06;60.37;28.90;73.45;;
72160;Laerm;60045;51.792;10.938;2023-03-03T05:26:32;60.61;31.24;73.00;;
72160;Laerm;60045;51.792;10.938;2023-03-03T05:28:59;60.94;37.05;76.23;;
72160;Laerm;60045;51.792;10.938;2023-03-03T05:31:25;52.31;28.81;71.49;;
72160;Laerm;60045;51.792;10.938;2023-03-03T05:33:51;62.02;33.41;74.87;;
72160;Laerm;60045;51.792;10.938;2023-03-03T05:36:19;64.48;34.30;82.24;;
72160;Laerm;60045;51.792;10.938;2023-03-03T05:38:45;66.46;34.39;81.37;;
72160;Laerm;60045;51.792;10.938;2023-03-03T05:41:12;59.24;30.08;72.67;;
72160;Laerm;60045;51.792;10.938;2023-03-03T05:43:38;67.10;34.20;83.01;;
72160;Laerm;60045;51.792;10.938;2023-03-03T05:46:04;62.22;32.10;77.25;;
72160;Laerm;60045;51.792;10.938;2023-03-03T05:48:31;60.56;32.34;75.07;;
72160;Laerm;60045;51.792;10.938;2023-03-03T05:50:57;67.15;35.25;83.70;;
72160;Laerm;60045;51.792;10.938;2023-03-03T05:53:25;52.44;30.34;68.91;;
72160;Laerm;60045;51.792;10.938;2023-03-03T05:55:52;66.48;32.50;81.55;;
72160;Laerm;60045;51.792;10.938;2023-03-03T05:58:18;65.34;31.35;85.12;;
72160;Laerm;60045;51.792;10.938;2023-03-03T06:00:45;62.04;33.51;74.52;;
72160;Laerm;60045;51.792;10.938;2023-03-03T06:03:11;59.38;33.20;74.70;;
72160;Laerm;60045;51.792;10.938;2023-03-03T06:05:37;66.23;34.47;82.45;;
72160;Laerm;60045;51.792;10.938;2023-03-03T06:08:04;53.02;32.33;72.05;;
72160;Laerm;60045;51.792;10.938;2023-03-03T06:10:31;64.25;31.16;80.22;;
72160;Laerm;60045;51.792;10.938;2023-03-03T06:12:58;60.37;33.48;74.29;;
72160;Laerm;60045;51.792;10.938;2023-03-03T06:15:24;60.57;29.65;74.31;;
72160;Laerm;60045;51.792;10.938;2023-03-03T06:17:51;68.10;31.65;87.47;;
72160;Laerm;60045;51.792;10.938;2023-03-03T06:20:17;63.09;34.95;79.33;;
72160;Laerm;60045;51.792;10.938;2023-03-03T06:22:43;60.36;31.51;72.69;;
72160;Laerm;60045;51.792;10.938;2023-03-03T06:25:10;65.36;30.56;82.48;;
72160;Laerm;60045;51.792;10.938;2023-03-03T06:27:37;64.80;31.46;81.64;;
72160;Laerm;60045;51.792;10.938;2023-03-03T06:30:04;60.86;30.09;75.77;;
72160;Laerm;60045;51.792;10.938;2023-03-03T06:32:31;66.68;30.71;82.31;;
72160;Laerm;60045;51.792;10.938;2023-03-03T06:34:57;62.60;33.41;79.36;;
72160;Laerm;60045;51.792;10.938;2023-03-03T06:37:23;67.26;37.60;85.70;;
72160;Laerm;60045;51.792;10.938;2023-03-03T06:39:49;61.10;34.15;77.92;;
72160;Laerm;60045;51.792;10.938;2023-03-03T06:42:17;58.94;33.12;74.41;;
72160;Laerm;60045;51.792;10.938;2023-03-03T06:44:45;65.82;36.91;81.94;;
72160;Laerm;60045;51.792;10.938;2023-03-03T06:47:11;65.03;35.99;80.70;;
72160;Laerm;60045;51.792;10.938;2023-03-03T06:49:37;60.71;35.38;77.32;;
72160;Laerm;60045;51.792;10.938;2023-03-03T06:52:08;56.58;31.63;72.12;;
72160;Laerm;60045;51.792;10.938;2023-03-03T06:54:35;59.42;32.29;73.80;;
72160;Laerm;60045;51.792;10.938;2023-03-03T06:57:02;64.26;34.13;80.75;;
72160;Laerm;60045;51.792;10.938;2023-03-03T06:59:31;64.68;31.17;78.70;;
72160;Laerm;60045;51.792;10.938;2023-03-03T07:01:59;52.10;31.05;70.55;;
72160;Laerm;60045;51.792;10.938;2023-03-03T07:04:26;57.26;31.30;74.43;;
72160;Laerm;60045;51.792;10.938;2023-03-03T07:06:54;59.29;30.42;80.08;;
72160;Laerm;60045;51.792;10.938;2023-03-03T07:09:21;59.23;31.43;72.29;;
72160;Laerm;60045;51.792;10.938;2023-03-03T07:11:49;56.13;30.26;71.23;;
72160;Laerm;60045;51.792;10.938;2023-03-03T07:14:16;56.94;30.15;69.74;;
72160;Laerm;60045;51.792;10.938;2023-03-03T07:16:43;59.05;33.58;74.49;;
72160;Laerm;60045;51.792;10.938;2023-03-03T07:19:13;56.21;32.03;71.87;;
72160;Laerm;60045;51.792;10.938;2023-03-03T07:21:41;59.20;32.20;74.07;;
72160;Laerm;60045;51.792;10.938;2023-03-03T07:24:12;67.57;37.27;84.39;;
72160;Laerm;60045;51.792;10.938;2023-03-03T07:26:41;53.28;30.15;73.81;;
72160;Laerm;60045;51.792;10.938;2023-03-03T07:29:12;56.64;31.67;70.05;;
72160;Laerm;60045;51.792;10.938;2023-03-03T07:31:41;55.06;30.75;73.04;;
72160;Laerm;60045;51.792;10.938;2023-03-03T07:34:15;65.20;35.78;82.98;;
72160;Laerm;60045;51.792;10.938;2023-03-03T07:36:44;65.78;30.75;83.08;;
72160;Laerm;60045;51.792;10.938;2023-03-03T07:39:17;56.94;31.72;71.17;;
72160;Laerm;60045;51.792;10.938;2023-03-03T07:41:46;63.78;31.46;83.87;;
72160;Laerm;60045;51.792;10.938;2023-03-03T07:44:14;58.18;30.79;71.07;;
72160;Laerm;60045;51.792;10.938;2023-03-03T07:46:44;55.37;31.62;70.04;;
72160;Laerm;60045;51.792;10.938;2023-03-03T07:49:19;61.94;33.61;78.60;;
72160;Laerm;60045;51.792;10.938;2023-03-03T07:51:46;66.82;31.43;83.17;;
72160;Laerm;60045;51.792;10.938;2023-03-03T07:54:14;61.27;33.86;77.77;;
72160;Laerm;60045;51.792;10.938;2023-03-03T07:56:42;61.72;32.94;76.81;;
72160;Laerm;60045;51.792;10.938;2023-03-03T07:59:15;59.79;30.52;73.39;;
72160;Laerm;60045;51.792;10.938;2023-03-03T08:01:45;66.66;35.06;82.01;;
72160;Laerm;60045;51.792;10.938;2023-03-03T08:04:19;60.46;33.28;74.58;;
72160;Laerm;60045;51.792;10.938;2023-03-03T08:06:47;58.49;31.64;73.62;;
72160;Laerm;60045;51.792;10.938;2023-03-03T08:09:31;65.38;32.26;81.31;;
72160;Laerm;60045;51.792;10.938;2023-03-03T08:12:01;64.37;35.83;78.30;;
72160;Laerm;60045;51.792;10.938;2023-03-03T08:14:36;60.51;32.25;73.59;;
72160;Laerm;60045;51.792;10.938;2023-03-03T08:17:05;61.37;38.01;74.57;;
72160;Laerm;60045;51.792;10.938;2023-03-03T08:19:33;65.97;34.03;78.60;;
72160;Laerm;60045;51.792;10.938;2023-03-03T08:22:01;60.15;31.43;74.60;;
72160;Laerm;60045;51.792;10.938;2023-03-03T08:24:28;57.76;31.03;73.07;;
72160;Laerm;60045;51.792;10.938;2023-03-03T08:26:54;60.40;29.22;75.68;;
72160;Laerm;60045;51.792;10.938;2023-03-03T08:29:20;60.90;35.54;75.39;;
72160;Laerm;60045;51.792;10.938;2023-03-03T08:31:46;58.39;30.31;73.95;;
72160;Laerm;60045;51.792;10.938;2023-03-03T08:34:13;57.20;31.24;72.75;;
72160;Laerm;60045;51.792;10.938;2023-03-03T08:36:40;55.81;30.38;70.78;;
72160;Laerm;60045;51.792;10.938;2023-03-03T08:39:07;61.35;30.63;76.25;;
72160;Laerm;60045;51.792;10.938;2023-03-03T08:41:33;54.96;31.91;71.14;;
72160;Laerm;60045;51.792;10.938;2023-03-03T08:43:59;61.92;31.27;76.25;;
72160;Laerm;60045;51.792;10.938;2023-03-03T08:46:25;52.85;30.16;68.89;;
72160;Laerm;60045;51.792;10.938;2023-03-03T08:48:52;66.52;34.89;84.79;;
72160;Laerm;60045;51.792;10.938;2023-03-03T08:51:18;61.17;35.24;76.56;;
72160;Laerm;60045;51.792;10.938;2023-03-03T08:53:46;61.74;32.65;77.23;;
72160;Laerm;60045;51.792;10.938;2023-03-03T08:56:12;65.97;34.57;79.96;;
72160;Laerm;60045;51.792;10.938;2023-03-03T08:58:39;57.56;30.31;74.04;;
72160;Laerm;60045;51.792;10.938;2023-03-03T09:01:12;58.45;32.28;72.78;;
72160;Laerm;60045;51.792;10.938;2023-03-03T09:03:38;59.69;33.37;74.03;;
72160;Laerm;60045;51.792;10.938;2023-03-03T09:06:05;59.30;28.81;73.02;;
72160;Laerm;60045;51.792;10.938;2023-03-03T09:08:31;62.86;31.64;78.08;;
72160;Laerm;60045;51.792;10.938;2023-03-03T09:10:59;57.34;30.38;73.19;;
72160;Laerm;60045;51.792;10.938;2023-03-03T09:13:26;58.75;29.54;73.24;;
72160;Laerm;60045;51.792;10.938;2023-03-03T09:15:54;67.61;35.97;85.44;;
72160;Laerm;60045;51.792;10.938;2023-03-03T09:18:22;67.63;36.82;80.91;;
72160;Laerm;60045;51.792;10.938;2023-03-03T09:20:51;60.19;33.04;74.03;;
72160;Laerm;60045;51.792;10.938;2023-03-03T09:23:27;56.13;31.24;72.60;;
72160;Laerm;60045;51.792;10.938;2023-03-03T09:25:53;64.41;34.72;81.63;;
72160;Laerm;60045;51.792;10.938;2023-03-03T09:28:23;63.06;33.28;77.36;;
72160;Laerm;60045;51.792;10.938;2023-03-03T09:30:51;57.79;32.00;73.69;;
72160;Laerm;60045;51.792;10.938;2023-03-03T09:33:19;61.82;29.99;77.35;;
72160;Laerm;60045;51.792;10.938;2023-03-03T09:35:49;63.03;32.36;78.98;;
72160;Laerm;60045;51.792;10.938;2023-03-03T09:38:18;62.53;33.19;77.76;;
72160;Laerm;60045;51.792;10.938;2023-03-03T09:40:50;60.58;32.91;73.55;;
72160;Laerm;60045;51.792;10.938;2023-03-03T09:43:21;68.34;38.87;83.98;;
72160;Laerm;60045;51.792;10.938;2023-03-03T09:45:57;61.77;34.95;75.37;;
72160;Laerm;60045;51.792;10.938;2023-03-03T09:48:37;65.45;35.99;78.86;;
72160;Laerm;60045;51.792;10.938;2023-03-03T09:51:10;65.38;31.04;84.31;;
72160;Laerm;60045;51.792;10.938;2023-03-03T09:53:41;65.13;40.45;80.16;;
72160;Laerm;60045;51.792;10.938;2023-03-03T09:56:13;57.76;29.35;70.76;;
72160;Laerm;60045;51.792;10.938;2023-03-03T09:58:46;58.77;30.97;74.13;;
72160;Laerm;60045;51.792;10.938;2023-03-03T10:01:22;60.45;30.66;75.20;;
72160;Laerm;60045;51.792;10.938;2023-03-03T10:03:57;58.17;31.53;71.80;;
72160;Laerm;60045;51.792;10.938;2023-03-03T10:06:27;59.41;30.93;75.85;;
72160;Laerm;60045;51.792;10.938;2023-03-03T10:09:00;61.03;34.23;72.40;;
72160;Laerm;60045;51.792;10.938;2023-03-03T10:11:29;61.01;31.83;74.65;;
72160;Laerm;60045;51.792;10.938;2023-03-03T10:14:00;57.58;31.38;73.02;;
72160;Laerm;60045;51.792;10.938;2023-03-03T10:16:36;61.45;35.62;74.37;;
72160;Laerm;60045;51.792;10.938;2023-03-03T10:19:10;59.88;30.84;74.43;;
72160;Laerm;60045;51.792;10.938;2023-03-03T10:21:41;65.44;37.64;81.37;;
72160;Laerm;60045;51.792;10.938;2023-03-03T10:24:14;63.48;38.02;80.03;;
72160;Laerm;60045;51.792;10.938;2023-03-03T10:26:50;63.01;32.26;78.88;;
72160;Laerm;60045;51.792;10.938;2023-03-03T10:29:25;61.80;32.46;76.15;;
72160;Laerm;60045;51.792;10.938;2023-03-03T10:32:03;67.07;34.74;86.30;;
72160;Laerm;60045;51.792;10.938;2023-03-03T10:34:47;64.40;36.91;81.33;;
72160;Laerm;60045;51.792;10.938;2023-03-03T10:37:17;60.92;31.59;77.55;;
72160;Laerm;60045;51.792;10.938;2023-03-03T10:39:48;65.08;30.60;84.96;;
72160;Laerm;60045;51.792;10.938;2023-03-03T10:42:23;64.12;40.90;80.11;;
72160;Laerm;60045;51.792;10.938;2023-03-03T10:45:01;61.43;37.93;78.65;;
72160;Laerm;60045;51.792;10.938;2023-03-03T10:47:54;65.53;33.57;81.58;;
72160;Laerm;60045;51.792;10.938;2023-03-03T10:50:25;59.31;32.73;74.50;;
72160;Laerm;60045;51.792;10.938;2023-03-03T10:52:55;61.06;33.84;74.55;;
72160;Laerm;60045;51.792;10.938;2023-03-03T10:55:34;60.84;32.76;75.21;;
72160;Laerm;60045;51.792;10.938;2023-03-03T10:58:07;61.09;31.39;78.34;;
72160;Laerm;60045;51.792;10.938;2023-03-03T11:00:40;58.52;30.35;73.25;;
72160;Laerm;60045;51.792;10.938;2023-03-03T11:03:20;57.92;31.31;71.91;;
72160;Laerm;60045;51.792;10.938;2023-03-03T11:05:56;59.59;32.74;74.41;;
72160;Laerm;60045;51.792;10.938;2023-03-03T11:08:26;62.15;33.42;75.69;;
72160;Laerm;60045;51.792;10.938;2023-03-03T11:10:57;56.88;33.27;73.77;;
72160;Laerm;60045;51.792;10.938;2023-03-03T11:13:26;62.87;35.00;75.20;;
72160;Laerm;60045;51.792;10.938;2023-03-03T11:18:47;66.62;31.73;80.03;;
72160;Laerm;60045;51.792;10.938;2023-03-03T11:21:18;64.91;34.36;78.92;;
72160;Laerm;60045;51.792;10.938;2023-03-03T11:24:11;60.88;34.80;77.00;;
72160;Laerm;60045;51.792;10.938;2023-03-03T11:26:45;58.71;33.79;75.28;;
72160;Laerm;60045;51.792;10.938;2023-03-03T11:29:20;67.97;36.06;82.39;;
72160;Laerm;60045;51.792;10.938;2023-03-03T11:31:48;50.78;29.53;68.59;;
72160;Laerm;60045;51.792;10.938;2023-03-03T11:34:22;64.04;35.26;80.54;;
72160;Laerm;60045;51.792;10.938;2023-03-03T11:36:54;65.17;37.18;79.09;;
72160;Laerm;60045;51.792;10.938;2023-03-03T11:39:22;65.32;35.18;82.67;;
72160;Laerm;60045;51.792;10.938;2023-03-03T11:41:53;57.10;33.57;71.50;;
72160;Laerm;60045;51.792;10.938;2023-03-03T11:44:26;67.21;32.61;84.92;;
72160;Laerm;60045;51.792;10.938;2023-03-03T11:46:55;62.12;33.24;76.54;;
72160;Laerm;60045;51.792;10.938;2023-03-03T11:49:26;61.75;32.37;74.34;;
72160;Laerm;60045;51.792;10.938;2023-03-03T11:51:56;60.78;36.01;72.13;;
72160;Laerm;60045;51.792;10.938;2023-03-03T11:54:28;59.15;33.67;71.78;;
72160;Laerm;60045;51.792;10.938;2023-03-03T11:56:57;63.70;35.71;75.40;;
72160;Laerm;60045;51.792;10.938;2023-03-03T11:59:33;65.14;38.29;80.99;;
72160;Laerm;60045;51.792;10.938;2023-03-03T12:02:02;60.27;31.62;74.46;;
72160;Laerm;60045;51.792;10.938;2023-03-03T12:04:36;61.41;31.80;75.68;;
72160;Laerm;60045;51.792;10.938;2023-03-03T12:07:09;62.16;33.17;76.69;;
72160;Laerm;60045;51.792;10.938;2023-03-03T12:09:41;60.78;35.38;74.54;;
72160;Laerm;60045;51.792;10.938;2023-03-03T12:12:11;62.33;36.43;74.93;;
72160;Laerm;60045;51.792;10.938;2023-03-03T12:14:44;61.09;36.22;73.25;;
72160;Laerm;60045;51.792;10.938;2023-03-03T12:17:19;62.13;35.97;75.13;;
72160;Laerm;60045;51.792;10.938;2023-03-03T12:19:52;59.31;32.52;74.60;;
72160;Laerm;60045;51.792;10.938;2023-03-03T12:22:25;60.49;33.20;72.50;;
72160;Laerm;60045;51.792;10.938;2023-03-03T12:24:59;62.32;35.35;74.45;;
72160;Laerm;60045;51.792;10.938;2023-03-03T12:27:29;58.34;32.30;73.95;;
72160;Laerm;60045;51.792;10.938;2023-03-03T12:30:02;63.94;34.59;80.51;;
72160;Laerm;60045;51.792;10.938;2023-03-03T12:32:34;55.79;32.31;73.76;;
72160;Laerm;60045;51.792;10.938;2023-03-03T12:35:10;59.04;32.78;73.34;;
72160;Laerm;60045;51.792;10.938;2023-03-03T12:37:46;60.33;33.99;75.39;;
72160;Laerm;60045;51.792;10.938;2023-03-03T12:40:14;61.91;36.58;75.43;;
72160;Laerm;60045;51.792;10.938;2023-03-03T12:42:46;59.90;33.00;73.84;;
72160;Laerm;60045;51.792;10.938;2023-03-03T12:45:18;62.11;35.58;76.76;;
72160;Laerm;60045;51.792;10.938;2023-03-03T12:47:49;59.85;32.65;73.60;;
72160;Laerm;60045;51.792;10.938;2023-03-03T12:50:22;60.38;33.90;71.87;;
72160;Laerm;60045;51.792;10.938;2023-03-03T12:52:51;62.38;37.01;73.45;;
72160;Laerm;60045;51.792;10.938;2023-03-03T12:55:24;64.24;37.63;79.70;;
72160;Laerm;60045;51.792;10.938;2023-03-03T12:57:57;62.68;34.34;78.51;;
72160;Laerm;60045;51.792;10.938;2023-03-03T13:00:28;55.94;32.14;73.68;;
72160;Laerm;60045;51.792;10.938;2023-03-03T13:02:57;62.19;34.98;74.54;;
72160;Laerm;60045;51.792;10.938;2023-03-03T13:05:28;60.97;31.20;77.21;;
72160;Laerm;60045;51.792;10.938;2023-03-03T13:07:57;56.55;30.20;72.64;;
72160;Laerm;60045;51.792;10.938;2023-03-03T13:10:26;62.32;32.64;74.57;;
72160;Laerm;60045;51.792;10.938;2023-03-03T13:12:58;61.86;34.52;74.35;;
72160;Laerm;60045;51.792;10.938;2023-03-03T13:15:28;63.27;36.84;76.34;;
72160;Laerm;60045;51.792;10.938;2023-03-03T13:17:58;59.18;30.89;74.13;;
72160;Laerm;60045;51.792;10.938;2023-03-03T13:20:32;58.98;32.23;74.95;;
72160;Laerm;60045;51.792;10.938;2023-03-03T13:23:03;62.36;34.93;76.58;;
72160;Laerm;60045;51.792;10.938;2023-03-03T13:25:37;57.70;31.30;75.70;;
72160;Laerm;60045;51.792;10.938;2023-03-03T13:28:10;60.92;32.85;75.96;;
72160;Laerm;60045;51.792;10.938;2023-03-03T13:30:39;61.55;32.23;75.12;;
72160;Laerm;60045;51.792;10.938;2023-03-03T13:33:09;61.06;35.70;75.39;;
72160;Laerm;60045;51.792;10.938;2023-03-03T13:35:39;57.72;32.90;72.18;;
72160;Laerm;60045;51.792;10.938;2023-03-03T13:38:09;61.44;31.34;75.43;;
72160;Laerm;60045;51.792;10.938;2023-03-03T13:40:39;60.35;31.83;76.86;;
72160;Laerm;60045;51.792;10.938;2023-03-03T13:43:08;58.30;32.97;70.79;;
72160;Laerm;60045;51.792;10.938;2023-03-03T13:45:36;64.73;34.99;78.28;;
72160;Laerm;60045;51.792;10.938;2023-03-03T13:48:07;53.02;29.98;69.79;;
72160;Laerm;60045;51.792;10.938;2023-03-03T13:50:36;61.65;35.56;74.77;;